sensor_id;sensor_type;location;lat;lon;timestamp;pressure;altitude;pressure_sealevel;temperature;humidity
44839;BME280;30576;42.098;24.876;2023-05-12T00:02:21;100212.28;;;11.84;69.49
44839;BME280;30576;42.098;24.876;2023-05-12T00:04:46;100239.41;;;12.02;70.16
44839;BME280;30576;42.098;24.876;2023-05-12T00:07:12;100232.38;;;12.00;69.07
44839;BME280;30576;42.098;24.876;2023-05-12T00:09:37;100192.09;;;11.75;69.49
44839;BME280;30576;42.098;24.876;2023-05-12T00:12:02;100231.59;;;11.92;70.02
44839;BME280;30576;42.098;24.876;2023-05-12T00:14:28;100238.66;;;11.89;69.86
44839;BME280;30576;42.098;24.876;2023-05-12T00:16:53;100232.56;;;11.83;70.35
44839;BME280;30576;42.098;24.876;2023-05-12T00:19:19;100192.25;;;11.63;70.38
44839;BME280;30576;42.098;24.876;2023-05-12T00:21:46;100233.38;;;11.89;70.05
44839;BME280;30576;42.098;24.876;2023-05-12T00:24:13;100242.16;;;11.89;70.36
44839;BME280;30576;42.098;24.876;2023-05-12T00:26:39;100214.16;;;11.74;70.29
44839;BME280;30576;42.098;24.876;2023-05-12T00:29:04;100233.41;;;11.84;70.49
44839;BME280;30576;42.098;24.876;2023-05-12T00:31:29;100222.88;;;11.81;70.65
44839;BME280;30576;42.098;24.876;2023-05-12T00:33:55;100233.31;;;11.96;70.43
44839;BME280;30576;42.098;24.876;2023-05-12T00:36:20;100221.25;;;11.68;70.61
44839;BME280;30576;42.098;24.876;2023-05-12T00:38:46;100235.13;;;11.90;70.62
44839;BME280;30576;42.098;24.876;2023-05-12T00:41:11;100198.41;;;11.65;69.82
44839;BME280;30576;42.098;24.876;2023-05-12T00:43:37;100247.44;;;11.94;70.36
44839;BME280;30576;42.098;24.876;2023-05-12T00:46:03;100243.19;;;11.79;70.45
44839;BME280;30576;42.098;24.876;2023-05-12T00:48:29;100232.59;;;11.79;70.26
44839;BME280;30576;42.098;24.876;2023-05-12T00:50:55;100243.09;;;11.87;70.26
44839;BME280;30576;42.098;24.876;2023-05-12T00:53:21;100235.97;;;11.95;69.95
44839;BME280;30576;42.098;24.876;2023-05-12T00:55:46;100243.19;;;11.77;70.61
44839;BME280;30576;42.098;24.876;2023-05-12T00:58:11;100189.75;;;11.51;70.40
44839;BME280;30576;42.098;24.876;2023-05-12T01:00:37;100245.81;;;11.79;70.48
44839;BME280;30576;42.098;24.876;2023-05-12T01:03:03;100217.81;;;11.61;70.95
44839;BME280;30576;42.098;24.876;2023-05-12T01:05:29;100252.78;;;11.86;70.56
44839;BME280;30576;42.098;24.876;2023-05-12T01:07:59;100241.34;;;11.84;70.79
44839;BME280;30576;42.098;24.876;2023-05-12T01:10:24;100210.72;;;11.64;70.80
44839;BME280;30576;42.098;24.876;2023-05-12T01:12:50;100253.63;;;11.91;70.80
44839;BME280;30576;42.098;24.876;2023-05-12T01:15:16;100229.97;;;11.79;70.45
44839;BME280;30576;42.098;24.876;2023-05-12T01:17:46;100221.22;;;11.71;70.57
44839;BME280;30576;42.098;24.876;2023-05-12T01:20:14;100212.50;;;11.65;70.41
44839;BME280;30576;42.098;24.876;2023-05-12T01:22:41;100231.72;;;11.78;70.74
44839;BME280;30576;42.098;24.876;2023-05-12T01:25:09;100236.03;;;11.87;70.38
44839;BME280;30576;42.098;24.876;2023-05-12T01:27:37;100222.13;;;11.70;71.07
44839;BME280;30576;42.098;24.876;2023-05-12T01:30:04;100228.16;;;11.81;71.22
44839;BME280;30576;42.098;24.876;2023-05-12T01:32:31;100230.75;;;11.86;70.48
44839;BME280;30576;42.098;24.876;2023-05-12T01:34:56;100234.16;;;11.98;70.64
44839;BME280;30576;42.098;24.876;2023-05-12T01:37:22;100232.47;;;11.93;70.09
44839;BME280;30576;42.098;24.876;2023-05-12T01:39:51;100196.75;;;11.55;70.09
44839;BME280;30576;42.098;24.876;2023-05-12T01:42:16;100198.47;;;11.60;70.40
44839;BME280;30576;42.098;24.876;2023-05-12T01:44:42;100238.78;;;11.78;70.49
44839;BME280;30576;42.098;24.876;2023-05-12T01:47:07;100238.03;;;11.67;70.87
44839;BME280;30576;42.098;24.876;2023-05-12T01:49:36;100199.31;;;11.62;70.13
44839;BME280;30576;42.098;24.876;2023-05-12T01:52:01;100212.41;;;11.72;70.04
44839;BME280;30576;42.098;24.876;2023-05-12T01:54:27;100235.25;;;11.80;69.95
44839;BME280;30576;42.098;24.876;2023-05-12T01:56:52;100233.50;;;11.76;70.21
44839;BME280;30576;42.098;24.876;2023-05-12T01:59:17;100244.84;;;11.85;70.08
44839;BME280;30576;42.098;24.876;2023-05-12T02:01:43;100238.78;;;11.78;69.82
44839;BME280;30576;42.098;24.876;2023-05-12T02:04:08;100235.41;;;11.65;70.27
44839;BME280;30576;42.098;24.876;2023-05-12T02:06:33;100213.53;;;11.51;70.47
44839;BME280;30576;42.098;24.876;2023-05-12T02:08:59;100241.59;;;11.61;71.08
44839;BME280;30576;42.098;24.876;2023-05-12T02:11:24;100239.72;;;11.72;70.91
44839;BME280;30576;42.098;24.876;2023-05-12T02:13:50;100237.06;;;11.74;71.41
44839;BME280;30576;42.098;24.876;2023-05-12T02:16:16;100202.66;;;11.77;70.80
44839;BME280;30576;42.098;24.876;2023-05-12T02:18:41;100237.81;;;11.87;70.92
44839;BME280;30576;42.098;24.876;2023-05-12T02:21:07;100199.25;;;11.69;71.03
44839;BME280;30576;42.098;24.876;2023-05-12T02:23:32;100232.63;;;11.77;71.20
44839;BME280;30576;42.098;24.876;2023-05-12T02:25:57;100234.34;;;11.80;71.54
44839;BME280;30576;42.098;24.876;2023-05-12T02:28:23;100176.50;;;11.52;71.41
44839;BME280;30576;42.098;24.876;2023-05-12T02:30:49;100225.50;;;11.82;71.85
44839;BME280;30576;42.098;24.876;2023-05-12T02:33:19;100236.94;;;11.85;71.82
44839;BME280;30576;42.098;24.876;2023-05-12T02:35:45;100191.47;;;11.53;71.85
44839;BME280;30576;42.098;24.876;2023-05-12T02:38:11;100222.91;;;11.79;71.99
44839;BME280;30576;42.098;24.876;2023-05-12T02:40:37;100225.56;;;11.78;71.98
44839;BME280;30576;42.098;24.876;2023-05-12T02:43:02;100225.59;;;11.76;71.36
44839;BME280;30576;42.098;24.876;2023-05-12T02:45:28;100218.44;;;11.85;71.19
44839;BME280;30576;42.098;24.876;2023-05-12T02:47:53;100227.19;;;11.93;70.98
44839;BME280;30576;42.098;24.876;2023-05-12T02:50:18;100235.94;;;11.96;70.86
44839;BME280;30576;42.098;24.876;2023-05-12T02:52:48;100198.25;;;11.77;70.15
44839;BME280;30576;42.098;24.876;2023-05-12T02:55:15;100199.09;;;11.81;70.62
44839;BME280;30576;42.098;24.876;2023-05-12T02:57:42;100188.56;;;11.76;70.52
44839;BME280;30576;42.098;24.876;2023-05-12T03:00:08;100232.47;;;11.93;71.09
44839;BME280;30576;42.098;24.876;2023-05-12T03:02:37;100214.91;;;11.84;71.44
44839;BME280;30576;42.098;24.876;2023-05-12T03:05:04;100164.19;;;11.53;70.87
44839;BME280;30576;42.098;24.876;2023-05-12T03:07:30;100223.72;;;11.83;71.40
44839;BME280;30576;42.098;24.876;2023-05-12T03:09:56;100254.47;;;11.96;71.39
44839;BME280;30576;42.098;24.876;2023-05-12T03:12:22;100198.38;;;11.67;71.76
44839;BME280;30576;42.098;24.876;2023-05-12T03:14:47;100248.41;;;11.85;71.97
44839;BME280;30576;42.098;24.876;2023-05-12T03:17:12;100237.97;;;11.71;72.01
44839;BME280;30576;42.098;24.876;2023-05-12T03:19:38;100255.41;;;11.86;72.51
44839;BME280;30576;42.098;24.876;2023-05-12T03:22:04;100214.31;;;11.60;72.26
44839;BME280;30576;42.098;24.876;2023-05-12T03:24:31;100231.78;;;11.71;72.42
44839;BME280;30576;42.098;24.876;2023-05-12T03:26:57;100252.78;;;11.86;72.16
44839;BME280;30576;42.098;24.876;2023-05-12T03:29:23;100264.94;;;12.04;72.65
44839;BME280;30576;42.098;24.876;2023-05-12T03:31:48;100227.19;;;11.90;72.20
44839;BME280;30576;42.098;24.876;2023-05-12T03:34:14;100264.94;;;12.04;72.74
44839;BME280;30576;42.098;24.876;2023-05-12T03:36:39;100223.59;;;11.97;72.03
44839;BME280;30576;42.098;24.876;2023-05-12T03:39:05;100196.44;;;11.82;71.88
44839;BME280;30576;42.098;24.876;2023-05-12T03:41:33;100244.47;;;12.20;71.51
44839;BME280;30576;42.098;24.876;2023-05-12T03:43:58;100265.53;;;12.26;71.40
44839;BME280;30576;42.098;24.876;2023-05-12T03:46:24;100238.28;;;12.23;70.93
44839;BME280;30576;42.098;24.876;2023-05-12T03:48:49;100275.03;;;12.44;70.63
44839;BME280;30576;42.098;24.876;2023-05-12T03:51:14;100272.63;;;12.26;70.56
44839;BME280;30576;42.098;24.876;2023-05-12T03:53:40;100291.00;;;12.35;70.89
44839;BME280;30576;42.098;24.876;2023-05-12T03:56:09;100260.28;;;12.23;70.87
44839;BME280;30576;42.098;24.876;2023-05-12T03:58:35;100292.75;;;12.39;70.09
44839;BME280;30576;42.098;24.876;2023-05-12T04:01:02;100254.28;;;12.12;70.78
44839;BME280;30576;42.098;24.876;2023-05-12T04:03:28;100275.88;;;12.46;69.80
44839;BME280;30576;42.098;24.876;2023-05-12T04:05:57;100270.69;;;12.39;70.62
44839;BME280;30576;42.098;24.876;2023-05-12T04:08:24;100266.38;;;12.33;70.38
44839;BME280;30576;42.098;24.876;2023-05-12T04:10:49;100276.00;;;12.35;70.03
44839;BME280;30576;42.098;24.876;2023-05-12T04:13:15;100298.00;;;12.42;69.59
44839;BME280;30576;42.098;24.876;2023-05-12T04:15:41;100268.16;;;12.28;69.75
44839;BME280;30576;42.098;24.876;2023-05-12T04:18:06;100300.31;;;12.67;69.39
44839;BME280;30576;42.098;24.876;2023-05-12T04:20:31;100300.50;;;12.53;69.13
44839;BME280;30576;42.098;24.876;2023-05-12T04:22:57;100306.47;;;12.67;68.80
44839;BME280;30576;42.098;24.876;2023-05-12T04:25:22;100241.50;;;12.45;68.32
44839;BME280;30576;42.098;24.876;2023-05-12T04:27:48;100264.06;;;12.72;68.58
44839;BME280;30576;42.098;24.876;2023-05-12T04:30:13;100289.44;;;12.87;68.36
44839;BME280;30576;42.098;24.876;2023-05-12T04:32:38;100295.69;;;12.81;67.41
44839;BME280;30576;42.098;24.876;2023-05-12T04:35:04;100293.47;;;12.49;68.08
44839;BME280;30576;42.098;24.876;2023-05-12T04:37:29;100255.69;;;12.41;66.96
44839;BME280;30576;42.098;24.876;2023-05-12T04:39:55;100285.59;;;12.44;67.51
44839;BME280;30576;42.098;24.876;2023-05-12T04:42:20;100286.66;;;12.29;68.45
44839;BME280;30576;42.098;24.876;2023-05-12T04:44:45;100282.84;;;12.53;68.42
44839;BME280;30576;42.098;24.876;2023-05-12T04:47:11;100249.59;;;12.32;67.96
44839;BME280;30576;42.098;24.876;2023-05-12T04:49:37;100222.41;;;12.21;68.59
44839;BME280;30576;42.098;24.876;2023-05-12T04:52:02;100277.53;;;12.55;68.86
44839;BME280;30576;42.098;24.876;2023-05-12T04:54:32;100208.31;;;12.22;68.13
44839;BME280;30576;42.098;24.876;2023-05-12T04:56:58;100238.88;;;12.43;68.77
44839;BME280;30576;42.098;24.876;2023-05-12T04:59:23;100208.00;;;12.45;68.83
44839;BME280;30576;42.098;24.876;2023-05-12T05:01:48;100278.88;;;12.84;67.69
44839;BME280;30576;42.098;24.876;2023-05-12T05:04:14;100253.50;;;12.69;67.85
44839;BME280;30576;42.098;24.876;2023-05-12T05:06:40;100239.97;;;12.89;67.67
44839;BME280;30576;42.098;24.876;2023-05-12T05:09:05;100286.81;;;12.85;67.24
44839;BME280;30576;42.098;24.876;2023-05-12T05:11:31;100281.50;;;12.85;67.53
44839;BME280;30576;42.098;24.876;2023-05-12T05:13:56;100236.84;;;12.62;67.28
44839;BME280;30576;42.098;24.876;2023-05-12T05:16:22;100292.19;;;12.79;66.35
44839;BME280;30576;42.098;24.876;2023-05-12T05:18:47;100260.50;;;12.75;66.57
44839;BME280;30576;42.098;24.876;2023-05-12T05:21:13;100294.19;;;13.21;65.74
44839;BME280;30576;42.098;24.876;2023-05-12T05:23:39;100311.88;;;13.19;66.28
44839;BME280;30576;42.098;24.876;2023-05-12T05:26:05;100224.22;;;12.80;66.07
44839;BME280;30576;42.098;24.876;2023-05-12T05:28:30;100287.97;;;13.22;66.81
44839;BME280;30576;42.098;24.876;2023-05-12T05:30:56;100307.16;;;13.41;66.75
44839;BME280;30576;42.098;24.876;2023-05-12T05:33:22;100276.53;;;13.21;66.02
44839;BME280;30576;42.098;24.876;2023-05-12T05:35:47;100308.91;;;13.40;65.74
44839;BME280;30576;42.098;24.876;2023-05-12T05:38:13;100265.22;;;13.12;65.61
44839;BME280;30576;42.098;24.876;2023-05-12T05:40:38;100311.25;;;13.57;65.05
44839;BME280;30576;42.098;24.876;2023-05-12T05:43:04;100250.72;;;13.33;64.53
44839;BME280;30576;42.098;24.876;2023-05-12T05:45:31;100301.44;;;13.64;65.75
44839;BME280;30576;42.098;24.876;2023-05-12T05:47:56;100265.19;;;13.66;63.88
44839;BME280;30576;42.098;24.876;2023-05-12T05:50:22;100263.31;;;13.71;64.19
44839;BME280;30576;42.098;24.876;2023-05-12T05:52:47;100301.16;;;13.81;64.26
44839;BME280;30576;42.098;24.876;2023-05-12T05:55:13;100274.66;;;13.79;63.28
44839;BME280;30576;42.098;24.876;2023-05-12T05:57:38;100304.03;;;14.14;62.92
44839;BME280;30576;42.098;24.876;2023-05-12T06:00:05;100271.94;;;14.26;61.69
44839;BME280;30576;42.098;24.876;2023-05-12T06:02:32;100244.72;;;14.18;61.21
44839;BME280;30576;42.098;24.876;2023-05-12T06:04:58;100259.13;;;14.47;61.26
44839;BME280;30576;42.098;24.876;2023-05-12T06:07:24;100274.09;;;14.90;60.03
44839;BME280;30576;42.098;24.876;2023-05-12T06:09:52;100233.19;;;14.60;59.71
44839;BME280;30576;42.098;24.876;2023-05-12T06:12:18;100240.00;;;15.09;58.97
44839;BME280;30576;42.098;24.876;2023-05-12T06:14:43;100253.84;;;15.22;58.21
44839;BME280;30576;42.098;24.876;2023-05-12T06:17:09;100312.25;;;15.25;58.90
44839;BME280;30576;42.098;24.876;2023-05-12T06:19:34;100313.06;;;15.63;57.08
44839;BME280;30576;42.098;24.876;2023-05-12T06:22:00;100311.84;;;15.75;57.05
44839;BME280;30576;42.098;24.876;2023-05-12T06:24:25;100320.19;;;15.96;55.86
44839;BME280;30576;42.098;24.876;2023-05-12T06:26:51;100317.22;;;15.73;56.57
44839;BME280;30576;42.098;24.876;2023-05-12T06:29:16;100324.66;;;15.95;55.94
44839;BME280;30576;42.098;24.876;2023-05-12T06:31:41;100317.56;;;16.27;54.45
44839;BME280;30576;42.098;24.876;2023-05-12T06:34:07;100320.75;;;16.40;54.41
44839;BME280;30576;42.098;24.876;2023-05-12T06:36:32;100316.31;;;16.39;54.48
44839;BME280;30576;42.098;24.876;2023-05-12T06:38:57;100325.56;;;16.27;55.10
44839;BME280;30576;42.098;24.876;2023-05-12T06:41:23;100323.84;;;16.24;55.34
44839;BME280;30576;42.098;24.876;2023-05-12T06:43:49;100321.06;;;16.29;53.81
44839;BME280;30576;42.098;24.876;2023-05-12T06:46:17;100324.22;;;16.42;54.36
44839;BME280;30576;42.098;24.876;2023-05-12T06:48:43;100320.50;;;16.77;53.31
44839;BME280;30576;42.098;24.876;2023-05-12T06:51:09;100312.22;;;16.58;54.51
44839;BME280;30576;42.098;24.876;2023-05-12T06:53:34;100316.91;;;16.50;54.78
44839;BME280;30576;42.098;24.876;2023-05-12T06:56:03;100314.25;;;16.50;53.95
44839;BME280;30576;42.098;24.876;2023-05-12T06:58:28;100318.38;;;17.18;53.11
44839;BME280;30576;42.098;24.876;2023-05-12T07:00:54;100317.16;;;17.81;50.54
44839;BME280;30576;42.098;24.876;2023-05-12T07:03:19;100310.66;;;17.64;51.52
44839;BME280;30576;42.098;24.876;2023-05-12T07:05:44;100312.19;;;17.45;52.51
44839;BME280;30576;42.098;24.876;2023-05-12T07:08:10;100305.53;;;17.83;50.66
44839;BME280;30576;42.098;24.876;2023-05-12T07:10:35;100309.72;;;17.39;51.84
44839;BME280;30576;42.098;24.876;2023-05-12T07:13:02;100302.22;;;16.96;52.17
44839;BME280;30576;42.098;24.876;2023-05-12T07:15:27;100300.38;;;17.25;51.04
44839;BME280;30576;42.098;24.876;2023-05-12T07:17:53;100298.91;;;17.43;50.63
44839;BME280;30576;42.098;24.876;2023-05-12T07:20:21;100299.53;;;18.27;48.88
44839;BME280;30576;42.098;24.876;2023-05-12T07:22:46;100301.50;;;17.98;48.75
44839;BME280;30576;42.098;24.876;2023-05-12T07:25:11;100301.06;;;17.84;48.90
44839;BME280;30576;42.098;24.876;2023-05-12T07:27:37;100300.47;;;17.22;50.48
44839;BME280;30576;42.098;24.876;2023-05-12T07:30:03;100307.38;;;17.29;50.30
44839;BME280;30576;42.098;24.876;2023-05-12T07:32:29;100305.19;;;16.86;49.67
44839;BME280;30576;42.098;24.876;2023-05-12T07:34:55;100300.03;;;16.79;50.64
44839;BME280;30576;42.098;24.876;2023-05-12T07:37:20;100306.34;;;17.05;49.56
44839;BME280;30576;42.098;24.876;2023-05-12T07:39:45;100305.50;;;16.75;49.66
44839;BME280;30576;42.098;24.876;2023-05-12T07:42:11;100310.44;;;16.89;49.85
44839;BME280;30576;42.098;24.876;2023-05-12T07:44:36;100309.75;;;16.80;48.57
44839;BME280;30576;42.098;24.876;2023-05-12T07:47:01;100310.84;;;16.75;49.12
44839;BME280;30576;42.098;24.876;2023-05-12T07:49:27;100303.22;;;16.92;49.17
44839;BME280;30576;42.098;24.876;2023-05-12T07:51:52;100303.31;;;16.89;49.79
44839;BME280;30576;42.098;24.876;2023-05-12T07:54:17;100300.84;;;16.53;50.63
44839;BME280;30576;42.098;24.876;2023-05-12T07:56:43;100308.06;;;16.18;52.76
44839;BME280;30576;42.098;24.876;2023-05-12T07:59:08;100296.84;;;16.38;51.68
44839;BME280;30576;42.098;24.876;2023-05-12T08:01:34;100303.81;;;16.72;51.45
44839;BME280;30576;42.098;24.876;2023-05-12T08:04:00;100298.75;;;17.21;48.78
44839;BME280;30576;42.098;24.876;2023-05-12T08:06:25;100299.50;;;17.51;50.01
44839;BME280;30576;42.098;24.876;2023-05-12T08:08:50;100301.09;;;18.09;47.36
44839;BME280;30576;42.098;24.876;2023-05-12T08:11:16;100296.97;;;18.24;47.63
44839;BME280;30576;42.098;24.876;2023-05-12T08:13:41;100296.84;;;18.74;45.20
44839;BME280;30576;42.098;24.876;2023-05-12T08:16:07;100289.38;;;19.28;44.05
44839;BME280;30576;42.098;24.876;2023-05-12T08:18:32;100294.47;;;19.55;42.62
44839;BME280;30576;42.098;24.876;2023-05-12T08:20:57;100293.34;;;19.61;42.98
44839;BME280;30576;42.098;24.876;2023-05-12T08:23:23;100285.72;;;19.52;41.25
44839;BME280;30576;42.098;24.876;2023-05-12T08:25:48;100282.72;;;18.94;41.72
44839;BME280;30576;42.098;24.876;2023-05-12T08:28:13;100291.13;;;19.29;43.07
44839;BME280;30576;42.098;24.876;2023-05-12T08:30:39;100291.34;;;19.66;42.73
44839;BME280;30576;42.098;24.876;2023-05-12T08:33:04;100283.94;;;19.93;41.51
44839;BME280;30576;42.098;24.876;2023-05-12T08:35:30;100284.66;;;19.76;40.53
44839;BME280;30576;42.098;24.876;2023-05-12T08:37:55;100288.78;;;19.42;40.24
44839;BME280;30576;42.098;24.876;2023-05-12T08:40:21;100286.03;;;19.23;43.42
44839;BME280;30576;42.098;24.876;2023-05-12T08:45:19;100283.13;;;18.84;43.20
44839;BME280;30576;42.098;24.876;2023-05-12T08:47:46;100286.56;;;18.87;42.82
44839;BME280;30576;42.098;24.876;2023-05-12T08:50:13;100287.13;;;19.60;42.99
44839;BME280;30576;42.098;24.876;2023-05-12T08:52:39;100285.97;;;19.25;41.91
44839;BME280;30576;42.098;24.876;2023-05-12T08:55:04;100286.03;;;19.23;39.50
44839;BME280;30576;42.098;24.876;2023-05-12T08:57:30;100277.16;;;19.64;42.68
44839;BME280;30576;42.098;24.876;2023-05-12T08:59:56;100281.78;;;19.60;40.27
44839;BME280;30576;42.098;24.876;2023-05-12T09:02:23;100276.72;;;19.95;40.86
44839;BME280;30576;42.098;24.876;2023-05-12T09:04:49;100277.63;;;19.74;39.54
44839;BME280;30576;42.098;24.876;2023-05-12T09:07:15;100280.41;;;19.93;38.07
44839;BME280;30576;42.098;24.876;2023-05-12T09:09:41;100278.19;;;20.02;40.34
44839;BME280;30576;42.098;24.876;2023-05-12T09:12:09;100274.09;;;20.33;36.06
44839;BME280;30576;42.098;24.876;2023-05-12T09:14:36;100277.88;;;19.47;37.28
44839;BME280;30576;42.098;24.876;2023-05-12T09:17:03;100273.53;;;19.44;37.69
44839;BME280;30576;42.098;24.876;2023-05-12T09:19:29;100279.41;;;19.32;36.57
44839;BME280;30576;42.098;24.876;2023-05-12T09:21:54;100278.28;;;19.58;37.74
44839;BME280;30576;42.098;24.876;2023-05-12T09:24:20;100272.41;;;19.71;36.35
44839;BME280;30576;42.098;24.876;2023-05-12T09:29:11;100271.28;;;20.55;38.28
44839;BME280;30576;42.098;24.876;2023-05-12T09:31:37;100263.59;;;20.68;35.96
44839;BME280;30576;42.098;24.876;2023-05-12T09:34:06;100259.41;;;20.61;36.64
44839;BME280;30576;42.098;24.876;2023-05-12T09:36:32;100266.63;;;20.40;35.23
44839;BME280;30576;42.098;24.876;2023-05-12T09:39:02;100266.06;;;19.73;37.69
44839;BME280;30576;42.098;24.876;2023-05-12T09:41:28;100271.41;;;19.53;38.54
44839;BME280;30576;42.098;24.876;2023-05-12T09:43:54;100268.06;;;19.68;37.85
44839;BME280;30576;42.098;24.876;2023-05-12T09:46:20;100253.66;;;20.70;34.00
44839;BME280;30576;42.098;24.876;2023-05-12T09:48:46;100248.28;;;20.70;38.52
44839;BME280;30576;42.098;24.876;2023-05-12T09:51:14;100256.59;;;20.83;35.98
44839;BME280;30576;42.098;24.876;2023-05-12T09:53:40;100253.31;;;20.38;36.87
44839;BME280;30576;42.098;24.876;2023-05-12T09:56:08;100256.88;;;19.38;38.48
44839;BME280;30576;42.098;24.876;2023-05-12T09:58:33;100257.72;;;19.18;38.38
44839;BME280;30576;42.098;24.876;2023-05-12T10:00:59;100260.00;;;19.27;39.62
44839;BME280;30576;42.098;24.876;2023-05-12T10:03:25;100257.94;;;18.91;38.70
44839;BME280;30576;42.098;24.876;2023-05-12T10:05:53;100250.94;;;18.41;38.99
44839;BME280;30576;42.098;24.876;2023-05-12T10:11:10;100244.88;;;19.48;37.34
44839;BME280;30576;42.098;24.876;2023-05-12T10:13:37;100246.13;;;20.01;35.98
44839;BME280;30576;42.098;24.876;2023-05-12T10:16:02;100245.38;;;19.56;38.76
44839;BME280;30576;42.098;24.876;2023-05-12T10:18:27;100248.75;;;18.74;38.60
44839;BME280;30576;42.098;24.876;2023-05-12T10:20:53;100246.47;;;19.09;40.19
44839;BME280;30576;42.098;24.876;2023-05-12T10:23:20;100252.06;;;19.25;38.46
44839;BME280;30576;42.098;24.876;2023-05-12T10:25:46;100248.03;;;18.93;38.14
44839;BME280;30576;42.098;24.876;2023-05-12T10:28:12;100246.22;;;18.93;39.26
44839;BME280;30576;42.098;24.876;2023-05-12T10:30:37;100252.94;;;18.58;40.14
44839;BME280;30576;42.098;24.876;2023-05-12T10:33:04;100235.59;;;18.92;39.92
44839;BME280;30576;42.098;24.876;2023-05-12T10:35:33;100233.88;;;18.91;39.06
44839;BME280;30576;42.098;24.876;2023-05-12T10:38:08;100238.00;;;18.54;39.97
44839;BME280;30576;42.098;24.876;2023-05-12T10:40:34;100243.63;;;18.92;39.38
44839;BME280;30576;42.098;24.876;2023-05-12T10:43:00;100235.19;;;18.79;38.88
44839;BME280;30576;42.098;24.876;2023-05-12T10:45:25;100235.97;;;19.05;40.07
44839;BME280;30576;42.098;24.876;2023-05-12T10:47:51;100226.44;;;19.20;38.57
44839;BME280;30576;42.098;24.876;2023-05-12T10:50:26;100224.78;;;19.38;37.49
44839;BME280;30576;42.098;24.876;2023-05-12T10:52:52;100230.47;;;19.30;36.73
44839;BME280;30576;42.098;24.876;2023-05-12T10:55:28;100228.09;;;19.02;37.90
44839;BME280;30576;42.098;24.876;2023-05-12T10:58:02;100231.16;;;19.13;38.12
44839;BME280;30576;42.098;24.876;2023-05-12T11:00:27;100224.72;;;18.96;37.33
44839;BME280;30576;42.098;24.876;2023-05-12T11:02:53;100233.31;;;18.37;38.80
44839;BME280;30576;42.098;24.876;2023-05-12T11:05:19;100223.75;;;18.53;38.72
44839;BME280;30576;42.098;24.876;2023-05-12T11:07:48;100218.44;;;18.75;38.46
44839;BME280;30576;42.098;24.876;2023-05-12T11:10:14;100214.00;;;18.74;38.62
44839;BME280;30576;42.098;24.876;2023-05-12T11:12:41;100204.88;;;19.02;37.32
44839;BME280;30576;42.098;24.876;2023-05-12T11:15:06;100203.44;;;19.16;37.66
44839;BME280;30576;42.098;24.876;2023-05-12T11:17:32;100211.03;;;18.60;37.33
44839;BME280;30576;42.098;24.876;2023-05-12T11:19:57;100204.94;;;18.78;38.68
44839;BME280;30576;42.098;24.876;2023-05-12T11:22:24;100217.34;;;19.03;36.94
44839;BME280;30576;42.098;24.876;2023-05-12T11:24:50;100209.63;;;18.95;39.52
44839;BME280;30576;42.098;24.876;2023-05-12T11:27:17;100213.47;;;18.66;37.63
44839;BME280;30576;42.098;24.876;2023-05-12T11:29:43;100217.41;;;19.02;38.33
44839;BME280;30576;42.098;24.876;2023-05-12T11:32:11;100210.88;;;19.29;37.74
44839;BME280;30576;42.098;24.876;2023-05-12T11:34:36;100203.97;;;19.44;39.17
44839;BME280;30576;42.098;24.876;2023-05-12T11:37:03;100204.19;;;19.40;37.61
44839;BME280;30576;42.098;24.876;2023-05-12T11:39:29;100210.66;;;19.55;38.80
44839;BME280;30576;42.098;24.876;2023-05-12T11:42:03;100200.03;;;19.53;37.98
44839;BME280;30576;42.098;24.876;2023-05-12T11:44:29;100200.25;;;19.90;37.26
44839;BME280;30576;42.098;24.876;2023-05-12T11:49:24;100179.59;;;19.92;37.25
44839;BME280;30576;42.098;24.876;2023-05-12T11:51:50;100187.94;;;19.65;37.43
44839;BME280;30576;42.098;24.876;2023-05-12T11:54:15;100190.47;;;19.27;37.46
44839;BME280;30576;42.098;24.876;2023-05-12T11:56:46;100200.13;;;19.09;39.24
44839;BME280;30576;42.098;24.876;2023-05-12T11:59:11;100188.41;;;19.33;37.05
44839;BME280;30576;42.098;24.876;2023-05-12T12:01:42;100192.09;;;19.31;40.24
44839;BME280;30576;42.098;24.876;2023-05-12T12:04:08;100183.72;;;19.80;37.15
44839;BME280;30576;42.098;24.876;2023-05-12T12:06:41;100190.47;;;19.68;37.67
44839;BME280;30576;42.098;24.876;2023-05-12T12:09:07;100176.94;;;19.92;37.61
44839;BME280;30576;42.098;24.876;2023-05-12T12:11:32;100179.47;;;20.14;37.17
44839;BME280;30576;42.098;24.876;2023-05-12T12:13:58;100177.06;;;19.89;37.45
44839;BME280;30576;42.098;24.876;2023-05-12T12:16:28;100183.16;;;19.92;37.43
44839;BME280;30576;42.098;24.876;2023-05-12T12:18:54;100178.03;;;19.46;36.32
44839;BME280;30576;42.098;24.876;2023-05-12T12:21:19;100183.94;;;19.34;37.89
44839;BME280;30576;42.098;24.876;2023-05-12T12:23:48;100185.38;;;19.21;38.40
44839;BME280;30576;42.098;24.876;2023-05-12T12:26:14;100181.41;;;19.31;39.27
44839;BME280;30576;42.098;24.876;2023-05-12T12:28:44;100178.88;;;18.84;38.68
44839;BME280;30576;42.098;24.876;2023-05-12T12:31:10;100179.41;;;18.71;37.32
44839;BME280;30576;42.098;24.876;2023-05-12T12:33:35;100180.59;;;18.86;37.91
44839;BME280;30576;42.098;24.876;2023-05-12T12:36:01;100178.41;;;18.96;38.34
44839;BME280;30576;42.098;24.876;2023-05-12T12:38:26;100173.53;;;19.06;37.39
44839;BME280;30576;42.098;24.876;2023-05-12T12:40:51;100170.81;;;19.28;37.52
44839;BME280;30576;42.098;24.876;2023-05-12T12:43:17;100167.88;;;19.55;37.09
44839;BME280;30576;42.098;24.876;2023-05-12T12:45:42;100165.03;;;19.78;36.33